createdAt,value
2023-04-13T00:03:48.964Z,98941.25
2023-04-13T00:08:51.291Z,98934.84
2023-04-13T00:13:55.611Z,98938.00
2023-04-13T00:19:02.034Z,98922.16
2023-04-13T00:24:11.598Z,98921.38
2023-04-13T00:29:14.642Z,98918.13
2023-04-13T00:34:16.557Z,98926.16
2023-04-13T00:39:26.945Z,98924.28
2023-04-13T00:44:33.472Z,98909.75
2023-04-13T00:49:36.706Z,98914.88
2023-04-13T00:54:39.020Z,98911.38
2023-04-13T00:59:43.815Z,98911.38
2023-04-13T01:04:50.370Z,98915.94
2023-04-13T01:10:33.044Z,98916.41
2023-04-13T01:15:41.403Z,98929.50
2023-04-13T01:20:44.977Z,98931.94
2023-04-13T01:26:03.436Z,98926.81
2023-04-13T01:31:05.777Z,98918.78
2023-04-13T01:36:12.406Z,98918.19
2023-04-13T01:41:14.044Z,98933.72
2023-04-13T01:46:15.963Z,98920.06
2023-04-13T01:51:19.529Z,98940.94
2023-04-13T01:56:22.030Z,98938.50
2023-04-13T02:01:41.327Z,98938.25
2023-04-13T02:06:43.402Z,98933.66
2023-04-13T02:11:48.235Z,98929.66
2023-04-13T02:16:50.406Z,98936.66
2023-04-13T02:22:13.423Z,98941.13
2023-04-13T02:27:15.004Z,98939.81
2023-04-13T02:32:16.692Z,98935.81
2023-04-13T02:37:21.194Z,98926.41
2023-04-13T02:42:33.853Z,98924.00
2023-04-13T02:48:10.144Z,98934.94
2023-04-13T02:53:18.127Z,98929.03
2023-04-13T02:58:25.080Z,98931.47
2023-04-13T03:03:38.827Z,98936.00
2023-04-13T03:08:41.231Z,98930.91
2023-04-13T03:13:48.240Z,98942.66
2023-04-13T03:18:50.101Z,98942.41
2023-04-13T03:23:55.094Z,98941.34
2023-04-13T03:29:05.528Z,98943.97
2023-04-13T03:34:07.342Z,98948.00
2023-04-13T03:39:09.245Z,98949.31
2023-04-13T03:44:12.049Z,98939.34
2023-04-13T03:49:19.762Z,98938.84
2023-04-13T03:54:21.548Z,98941.50
2023-04-13T03:59:33.887Z,98948.50
2023-04-13T04:04:40.140Z,98938.28
2023-04-13T04:09:46.550Z,98940.94
2023-04-13T04:14:56.838Z,98937.69
2023-04-13T04:20:02.826Z,98947.56
2023-04-13T04:25:14.139Z,98946.31
2023-04-13T04:30:17.417Z,98942.72
2023-04-13T04:35:19.841Z,98941.66
2023-04-13T04:40:24.343Z,98946.19
2023-04-13T04:45:26.392Z,98955.03
2023-04-13T05:02:24.806Z,98966.50
2023-04-13T05:07:29.694Z,98969.16
2023-04-13T05:12:31.449Z,98974.28
2023-04-13T05:17:34.301Z,98988.25
2023-04-13T05:22:36.137Z,98986.53
2023-04-13T05:27:40.859Z,98997.25
2023-04-13T05:32:42.519Z,99005.03
2023-04-13T05:37:46.888Z,99011.44
2023-04-13T05:42:50.122Z,99020.06
2023-04-13T05:47:51.935Z,99016.25
2023-04-13T05:52:53.780Z,99019.72
2023-04-13T05:57:55.527Z,99025.34
2023-04-13T06:02:58.238Z,99027.75
2023-04-13T06:08:04.674Z,99032.09
2023-04-13T06:13:06.526Z,99048.38
2023-04-13T06:18:14.006Z,99046.78
2023-04-13T06:23:19.681Z,99065.25
2023-04-13T06:28:24.284Z,99060.97
2023-04-13T06:33:27.136Z,99062.00
2023-04-13T06:38:29.819Z,99065.03
2023-04-13T06:43:34.241Z,99057.22
2023-04-13T06:48:40.765Z,99049.44
2023-04-13T06:53:49.071Z,99051.28
2023-04-13T06:58:55.460Z,99051.63
2023-04-13T09:22:23.850Z,99204.66
2023-04-13T09:27:50.077Z,99203.16
2023-04-13T09:44:44.677Z,99214.78
2023-04-13T09:49:55.979Z,99223.53
2023-04-13T10:01:12.581Z,99233.75
2023-04-13T10:06:46.752Z,99250.31
2023-04-13T10:12:13.048Z,99243.09
2023-04-13T10:18:05.506Z,99233.19
2023-04-13T10:23:26.514Z,99236.22
2023-04-13T10:40:58.727Z,99227.19
2023-04-13T10:46:41.307Z,99241.72
2023-04-13T11:09:42.692Z,99273.75
2023-04-13T11:34:45.342Z,99323.09
2023-04-13T11:39:57.509Z,99299.56
2023-04-13T11:45:12.332Z,99305.97
2023-04-13T11:50:23.225Z,99308.19
2023-04-13T11:55:42.468Z,99322.38
2023-04-13T12:18:14.361Z,99321.22
2023-04-13T12:23:24.412Z,99312.16
2023-04-13T12:28:32.216Z,99311.91
2023-04-13T12:33:37.482Z,99303.03
2023-04-13T12:38:43.090Z,99305.50
2023-04-13T12:43:44.989Z,99296.41
2023-04-13T12:48:48.151Z,99284.63
2023-04-13T12:53:49.821Z,99286.28
2023-04-13T12:58:54.529Z,99282.75
2023-04-13T13:03:56.187Z,99277.97
2023-04-13T13:08:58.272Z,99281.72
2023-04-13T13:14:00.163Z,99274.72
2023-04-13T13:19:06.288Z,99276.94
2023-04-13T13:24:08.403Z,99291.72
2023-04-13T13:29:11.685Z,99316.91
2023-04-13T13:34:16.379Z,99308.88
2023-04-13T13:39:18.635Z,99303.84
2023-04-13T13:44:21.688Z,99287.75
2023-04-13T13:49:26.188Z,99301.41
2023-04-13T13:54:29.991Z,99300.13
2023-04-13T13:59:32.972Z,99303.03
2023-04-13T14:04:34.981Z,99293.09
2023-04-13T14:09:36.751Z,99288.31
2023-04-13T14:14:38.395Z,99274.13
2023-04-13T14:19:47.912Z,99274.91
2023-04-13T14:24:53.233Z,99276.78
2023-04-13T14:29:57.192Z,99271.44
2023-04-13T14:35:15.272Z,99276.56
2023-04-13T14:40:17.237Z,99274.13
2023-04-13T14:45:24.896Z,99278.41
2023-04-13T14:55:55.255Z,99287.50
2023-04-13T15:00:57.075Z,99294.50
2023-04-13T15:06:05.522Z,99295.56
2023-04-13T15:11:16.032Z,99307.91
2023-04-13T15:16:20.483Z,99312.47
2023-04-13T15:21:22.201Z,99313.25
2023-04-13T15:26:25.429Z,99318.63
2023-04-13T15:31:29.406Z,99325.63
2023-04-13T15:36:31.274Z,99309.78
2023-04-13T15:41:33.380Z,99313.25
2023-04-13T15:46:35.915Z,99309.53
2023-04-13T15:51:40.006Z,99316.53
2023-04-13T15:56:46.855Z,99321.66
2023-04-13T16:01:59.233Z,99321.88
2023-04-13T16:07:12.914Z,99323.75
2023-04-13T16:12:29.856Z,99320.84
2023-04-13T16:17:33.033Z,99324.00
2023-04-13T16:22:36.360Z,99333.69
2023-04-13T16:27:45.418Z,99341.50
2023-04-13T16:32:51.340Z,99357.00
2023-04-13T16:37:53.214Z,99366.09
2023-04-13T16:42:55.436Z,99377.38
2023-04-13T16:48:01.442Z,99384.41
2023-04-13T16:53:05.971Z,99380.88
2023-04-13T16:58:15.764Z,99387.31
2023-04-13T17:03:21.881Z,99396.97
2023-04-13T17:08:23.974Z,99392.66
2023-04-13T17:13:28.731Z,99394.28
2023-04-13T17:18:30.556Z,99400.94
2023-04-13T17:23:34.931Z,99408.19
2023-04-13T17:28:36.767Z,99406.06
2023-04-13T17:33:38.475Z,99408.75
2023-04-13T17:38:40.508Z,99416.22
2023-04-13T17:43:42.297Z,99419.13
2023-04-13T17:54:30.806Z,99425.28
2023-04-13T17:59:33.005Z,99433.34
2023-04-13T18:04:40.828Z,99441.38
2023-04-13T18:09:46.037Z,99456.44
2023-04-13T18:14:50.538Z,99461.00
2023-04-13T18:19:52.982Z,99470.66
2023-04-13T18:24:59.553Z,99473.00
2023-04-13T18:30:05.929Z,99473.56
2023-04-13T18:35:26.440Z,99475.69
2023-04-13T18:40:44.476Z,99490.72
2023-04-13T18:46:02.092Z,99491.41
2023-04-13T18:51:05.498Z,99503.16
2023-04-13T18:56:23.855Z,99515.75
2023-04-13T19:02:15.798Z,99524.63
2023-04-13T19:07:39.804Z,99524.28
2023-04-13T19:13:32.474Z,99537.44
2023-04-13T19:19:02.438Z,99552.13
2023-04-13T19:42:42.832Z,99579.63
2023-04-13T19:48:43.780Z,99584.63
2023-04-13T19:53:53.950Z,99595.34
2023-04-13T19:59:22.394Z,99602.56
2023-04-13T20:10:18.569Z,99606.31
2023-04-13T20:15:41.432Z,99600.72
2023-04-13T20:50:50.912Z,99611.31
2023-04-13T20:56:08.705Z,99619.34
2023-04-13T21:07:30.192Z,99629.25
2023-04-13T21:12:52.588Z,99639.13
2023-04-13T21:18:34.952Z,99639.59
2023-04-13T21:24:00.355Z,99627.81
2023-04-13T21:29:52.181Z,99632.03
2023-04-13T21:40:56.026Z,99625.63
2023-04-13T21:46:28.886Z,99625.84
2023-04-13T21:56:56.490Z,99633.06
2023-04-13T22:02:22.248Z,99637.41
2023-04-13T22:07:47.143Z,99637.84
2023-04-13T22:13:34.759Z,99649.38
2023-04-13T22:18:49.515Z,99651.44
2023-04-13T22:23:57.546Z,99657.66
2023-04-13T22:29:13.653Z,99651.09
2023-04-13T22:34:24.593Z,99652.13
2023-04-13T22:39:48.175Z,99663.06
2023-04-13T22:45:01.678Z,99657.72
2023-04-13T22:50:30.970Z,99657.16
2023-04-13T22:55:50.155Z,99660.41
2023-04-13T23:00:58.618Z,99662.72
2023-04-13T23:06:07.028Z,99670.53
2023-04-13T23:23:20.322Z,99692.84
2023-04-13T23:34:12.145Z,99699.22
2023-04-13T23:39:41.923Z,99688.97
2023-04-13T23:44:47.969Z,99686.53
2023-04-13T23:49:55.679Z,99700.50
